createdAt,value
2018-12-13T00:00:22.903Z,4.15
2018-12-13T00:02:51.943Z,4.16
2018-12-13T00:05:20.993Z,4.14
2018-12-13T00:07:50.061Z,4.17
2018-12-13T00:10:19.104Z,4.16
2018-12-13T00:12:48.171Z,4.09
2018-12-13T00:15:17.262Z,4.12
2018-12-13T00:17:46.320Z,4.14
2018-12-13T00:20:15.378Z,4.15
2018-12-13T00:22:44.439Z,4.16
2018-12-13T00:25:13.483Z,4.15
2018-12-13T00:27:42.518Z,4.15
2018-12-13T00:30:11.601Z,4.14
2018-12-13T00:32:40.648Z,4.14
2018-12-13T00:35:09.688Z,4.15
2018-12-13T00:37:38.778Z,4.15
2018-12-13T00:40:07.832Z,4.11
2018-12-13T00:42:36.875Z,4.06
2018-12-13T00:45:05.942Z,4.02
2018-12-13T00:47:34.984Z,4.06
2018-12-13T00:50:04.034Z,4.07
2018-12-13T00:52:33.113Z,4.08
2018-12-13T00:55:02.149Z,4.08
2018-12-13T00:57:31.215Z,4.08
2018-12-13T01:00:00.305Z,4.06
2018-12-13T01:02:29.347Z,4.04
2018-12-13T01:04:58.402Z,4.02
2018-12-13T01:07:27.544Z,4.03
2018-12-13T01:09:56.597Z,3.99
2018-12-13T01:12:25.637Z,3.99
2018-12-13T01:14:54.708Z,3.99
2018-12-13T01:17:23.754Z,4.01
2018-12-13T01:19:52.804Z,4.02
2018-12-13T01:22:21.897Z,4.01
2018-12-13T01:24:50.942Z,3.97
2018-12-13T01:27:19.979Z,4.02
2018-12-13T01:29:49.048Z,4.04
2018-12-13T01:32:18.094Z,4.05
2018-12-13T01:34:47.135Z,4.02
2018-12-13T01:37:16.209Z,4.02
2018-12-13T01:39:45.251Z,3.98
2018-12-13T01:42:14.294Z,3.93
2018-12-13T01:44:43.411Z,3.90
2018-12-13T01:47:12.443Z,3.87
2018-12-13T01:49:41.493Z,3.88
2018-12-13T01:52:10.566Z,3.72
2018-12-13T01:54:39.617Z,3.59
2018-12-13T01:57:08.671Z,3.57
2018-12-13T01:59:37.742Z,3.52
2018-12-13T02:02:06.786Z,3.57
2018-12-13T02:04:35.832Z,3.54
2018-12-13T02:07:05.243Z,3.56
2018-12-13T02:09:34.294Z,3.56
2018-12-13T02:12:03.357Z,3.55
2018-12-13T02:14:32.437Z,3.56
2018-12-13T02:17:01.489Z,3.57
2018-12-13T02:19:30.544Z,3.56
2018-12-13T02:21:59.627Z,3.54
2018-12-13T02:24:28.667Z,3.60
2018-12-13T02:26:57.716Z,3.58
2018-12-13T02:29:26.887Z,3.58
2018-12-13T02:31:55.933Z,3.61
2018-12-13T02:34:24.981Z,3.60
2018-12-13T02:36:54.053Z,3.60
2018-12-13T02:39:23.107Z,3.41
2018-12-13T02:41:52.142Z,3.24
2018-12-13T02:44:21.423Z,3.14
2018-12-13T02:46:50.480Z,3.10
2018-12-13T02:49:19.532Z,2.98
2018-12-13T02:51:48.629Z,2.92
2018-12-13T02:54:17.676Z,2.97
2018-12-13T02:56:46.728Z,3.00
2018-12-13T02:59:15.797Z,3.00
2018-12-13T03:01:44.852Z,3.00
2018-12-13T03:04:13.912Z,3.02
2018-12-13T03:06:43.076Z,3.05
2018-12-13T03:09:12.120Z,3.09
2018-12-13T03:11:41.174Z,3.16
2018-12-13T03:14:10.286Z,3.20
2018-12-13T03:16:39.350Z,3.25
2018-12-13T03:19:08.407Z,3.27
2018-12-13T03:21:37.486Z,3.30
2018-12-13T03:24:06.535Z,3.35
2018-12-13T03:26:35.594Z,3.40
2018-12-13T03:29:04.672Z,3.45
2018-12-13T03:31:33.723Z,3.48
2018-12-13T03:34:02.784Z,3.53
2018-12-13T03:36:31.909Z,3.56
2018-12-13T03:39:00.964Z,3.58
2018-12-13T03:41:30.026Z,3.62
2018-12-13T03:43:59.115Z,3.62
2018-12-13T03:46:28.167Z,3.63
2018-12-13T03:48:57.222Z,3.66
2018-12-13T03:51:26.306Z,3.61
2018-12-13T03:53:55.350Z,3.40
2018-12-13T03:56:24.395Z,3.29
2018-12-13T03:58:53.474Z,3.28
2018-12-13T04:01:22.528Z,3.32
2018-12-13T04:03:51.576Z,3.32
2018-12-13T04:06:26.739Z,3.29
2018-12-13T04:08:55.788Z,3.28
2018-12-13T04:11:24.844Z,3.25
2018-12-13T04:13:53.916Z,3.26
2018-12-13T04:16:33.840Z,3.24
2018-12-13T04:19:02.938Z,3.28
2018-12-13T04:21:31.978Z,3.28
2018-12-13T04:24:01.022Z,3.29
2018-12-13T04:26:30.087Z,3.25
2018-12-13T04:28:59.136Z,3.24
2018-12-13T04:31:28.185Z,3.23
2018-12-13T04:33:57.261Z,3.22
2018-12-13T04:36:26.303Z,3.23
2018-12-13T04:38:55.368Z,3.25
2018-12-13T04:41:24.480Z,3.27
2018-12-13T04:43:53.527Z,3.20
2018-12-13T04:46:22.573Z,3.10
2018-12-13T04:48:51.678Z,3.11
2018-12-13T04:51:20.716Z,3.14
2018-12-13T04:53:49.777Z,3.17
2018-12-13T04:56:33.883Z,3.20
2018-12-13T04:59:02.934Z,3.26
2018-12-13T05:01:31.990Z,3.27
2018-12-13T05:04:01.056Z,3.27
2018-12-13T05:06:30.107Z,3.26
2018-12-13T05:08:59.149Z,3.29
2018-12-13T05:11:28.227Z,3.30
2018-12-13T05:13:57.287Z,3.33
2018-12-13T05:16:26.359Z,3.32
2018-12-13T05:18:55.465Z,3.26
2018-12-13T05:21:24.524Z,3.20
2018-12-13T05:23:53.593Z,3.21
2018-12-13T05:26:39.731Z,3.27
2018-12-13T05:29:08.793Z,3.32
2018-12-13T05:31:37.843Z,3.32
2018-12-13T05:34:07.031Z,3.27
2018-12-13T05:36:36.088Z,3.18
2018-12-13T05:39:05.130Z,3.22
2018-12-13T05:41:34.234Z,3.20
2018-12-13T05:44:03.287Z,3.13
2018-12-13T05:46:32.332Z,3.08
2018-12-13T05:49:01.412Z,3.10
2018-12-13T05:51:30.503Z,3.14
2018-12-13T05:53:59.554Z,3.10
2018-12-13T05:56:36.454Z,3.14
2018-12-13T05:59:05.504Z,3.11
2018-12-13T06:01:34.555Z,3.11
2018-12-13T06:04:03.639Z,3.13
2018-12-13T06:06:34.656Z,3.17
2018-12-13T06:09:03.710Z,3.22
2018-12-13T06:11:32.794Z,3.24
2018-12-13T06:14:01.854Z,3.24
2018-12-13T06:16:30.909Z,3.29
2018-12-13T06:19:00.015Z,3.33
2018-12-13T06:21:29.073Z,3.34
2018-12-13T06:23:58.130Z,3.38
2018-12-13T06:26:27.215Z,3.35
2018-12-13T06:28:56.263Z,3.32
2018-12-13T06:31:25.343Z,3.38
2018-12-13T06:33:54.502Z,3.39
2018-12-13T06:36:28.813Z,3.39
2018-12-13T06:38:57.926Z,3.35
2018-12-13T06:41:26.973Z,3.40
2018-12-13T06:43:56.010Z,3.40
2018-12-13T06:46:25.093Z,3.46
2018-12-13T06:48:54.147Z,3.42
2018-12-13T06:51:23.185Z,3.44
2018-12-13T06:53:52.257Z,3.44
2018-12-13T06:56:21.323Z,3.46
2018-12-13T06:58:50.379Z,3.48
2018-12-13T07:01:19.474Z,3.49
2018-12-13T07:03:48.534Z,3.49
2018-12-13T07:06:17.588Z,3.49
2018-12-13T07:08:46.666Z,3.42
2018-12-13T07:11:15.707Z,3.43
2018-12-13T07:13:44.762Z,3.45
2018-12-13T07:16:13.829Z,3.47
2018-12-13T07:18:42.881Z,3.49
2018-12-13T07:21:11.948Z,3.50
2018-12-13T07:23:41.041Z,3.41
2018-12-13T07:26:16.164Z,3.37
2018-12-13T07:28:45.277Z,3.42
2018-12-13T07:31:14.335Z,3.43
2018-12-13T07:33:43.400Z,3.39
2018-12-13T07:36:19.930Z,3.36
2018-12-13T07:38:48.994Z,3.35
2018-12-13T07:41:18.146Z,3.22
2018-12-13T07:43:47.249Z,3.23
2018-12-13T07:46:16.309Z,3.21
2018-12-13T07:48:45.370Z,3.23
2018-12-13T07:51:14.451Z,3.21
2018-12-13T07:53:43.505Z,3.14
2018-12-13T07:56:12.667Z,3.06
2018-12-13T07:58:41.687Z,3.01
2018-12-13T08:01:10.748Z,3.04
2018-12-13T08:03:39.810Z,3.03
2018-12-13T08:06:08.944Z,3.03
2018-12-13T08:08:38.004Z,3.05
2018-12-13T08:11:07.065Z,3.02
2018-12-13T08:13:36.150Z,3.01
2018-12-13T08:16:05.204Z,3.05
2018-12-13T08:18:34.255Z,3.01
2018-12-13T08:21:03.345Z,3.01
2018-12-13T08:23:32.405Z,3.07
2018-12-13T08:26:01.461Z,3.06
2018-12-13T08:28:30.577Z,3.08
2018-12-13T08:30:59.634Z,3.09
2018-12-13T08:33:28.699Z,3.07
2018-12-13T08:35:59.789Z,3.05
2018-12-13T08:38:28.845Z,3.09
2018-12-13T08:40:57.896Z,3.13
2018-12-13T08:43:26.986Z,3.17
2018-12-13T08:45:56.052Z,3.15
2018-12-13T08:48:25.118Z,3.17
2018-12-13T08:50:54.372Z,3.16
2018-12-13T08:53:23.279Z,3.18
2018-12-13T08:55:53.355Z,3.14
2018-12-13T08:58:22.442Z,3.15
2018-12-13T09:00:51.503Z,3.17
2018-12-13T09:03:20.579Z,3.17
2018-12-13T09:05:49.671Z,3.21
2018-12-13T09:08:18.772Z,3.21
2018-12-13T09:10:47.837Z,3.19
2018-12-13T09:13:17.243Z,3.19
2018-12-13T09:15:46.303Z,3.18
2018-12-13T09:18:15.360Z,3.17
2018-12-13T09:20:44.448Z,3.09
2018-12-13T09:23:13.505Z,3.08
2018-12-13T09:25:42.558Z,3.03
2018-12-13T09:28:11.647Z,3.00
2018-12-13T09:30:40.704Z,3.06
2018-12-13T09:33:09.772Z,3.05
2018-12-13T09:35:39.003Z,3.07
2018-12-13T09:38:08.060Z,3.08
2018-12-13T09:40:37.124Z,3.07
2018-12-13T09:43:06.205Z,3.00
2018-12-13T09:45:35.264Z,2.99
2018-12-13T09:48:04.325Z,2.98
2018-12-13T09:50:33.417Z,2.99
2018-12-13T09:53:02.490Z,2.93
2018-12-13T09:55:31.545Z,2.91
2018-12-13T09:58:00.653Z,2.92
2018-12-13T10:00:29.717Z,2.86
2018-12-13T10:02:58.762Z,2.80
2018-12-13T10:05:27.868Z,2.74
2018-12-13T10:07:56.924Z,2.72
2018-12-13T10:10:25.982Z,2.78
2018-12-13T10:12:55.075Z,2.87
2018-12-13T10:15:24.146Z,2.90
2018-12-13T10:17:53.197Z,2.86
2018-12-13T10:20:22.334Z,2.84
2018-12-13T10:22:51.399Z,2.86
2018-12-13T10:25:20.453Z,2.88
2018-12-13T10:27:49.543Z,2.94
2018-12-13T10:30:18.597Z,2.98
2018-12-13T10:32:47.649Z,3.02
2018-12-13T10:35:16.826Z,3.02
2018-12-13T10:37:45.881Z,3.08
2018-12-13T10:40:14.937Z,3.08
2018-12-13T10:42:44.037Z,3.08
2018-12-13T10:45:13.091Z,3.09
2018-12-13T10:47:42.147Z,3.14
2018-12-13T10:50:11.242Z,3.13
2018-12-13T10:52:40.294Z,3.13
2018-12-13T10:55:09.377Z,3.13
2018-12-13T10:57:38.483Z,3.16
2018-12-13T11:00:07.541Z,3.16
2018-12-13T11:02:43.203Z,3.20
2018-12-13T11:05:12.258Z,3.22
2018-12-13T11:07:41.317Z,3.26
2018-12-13T11:10:10.394Z,3.27
2018-12-13T11:12:39.444Z,3.28
2018-12-13T11:15:08.492Z,3.31
2018-12-13T11:17:37.569Z,3.30
2018-12-13T11:20:06.626Z,3.30
2018-12-13T11:22:35.689Z,3.23
2018-12-13T11:25:04.944Z,3.20
2018-12-13T11:27:45.808Z,3.19
2018-12-13T11:30:21.426Z,3.18
2018-12-13T11:32:50.481Z,3.17
2018-12-13T11:35:19.558Z,3.16
2018-12-13T11:37:48.648Z,3.21
2018-12-13T11:40:17.714Z,3.20
2018-12-13T11:42:46.774Z,3.21
2018-12-13T11:45:15.889Z,3.18
2018-12-13T11:47:44.957Z,3.18
2018-12-13T11:50:14.017Z,3.18
2018-12-13T11:52:43.103Z,3.21
2018-12-13T11:55:19.778Z,3.24
2018-12-13T11:57:48.857Z,3.28
2018-12-13T12:00:17.913Z,3.30
2018-12-13T12:02:46.976Z,3.30
2018-12-13T12:05:16.082Z,3.29
2018-12-13T12:07:45.148Z,3.30
2018-12-13T12:10:14.225Z,3.28
2018-12-13T12:12:43.297Z,3.21
2018-12-13T12:15:12.361Z,3.17
2018-12-13T12:17:41.425Z,3.09
2018-12-13T12:20:10.504Z,3.06
2018-12-13T12:22:39.577Z,3.01
2018-12-13T12:25:08.646Z,3.06
2018-12-13T12:27:37.731Z,2.93
2018-12-13T12:30:06.788Z,2.93
2018-12-13T12:32:35.850Z,2.97
2018-12-13T12:35:04.965Z,2.94
2018-12-13T12:37:34.015Z,2.99
2018-12-13T12:40:03.078Z,3.01
2018-12-13T12:42:32.180Z,2.97
2018-12-13T12:45:01.245Z,3.00
2018-12-13T12:47:30.296Z,3.04
2018-12-13T12:49:59.397Z,3.06
2018-12-13T12:52:28.441Z,3.05
2018-12-13T12:54:57.509Z,3.02
2018-12-13T12:57:26.603Z,3.07
2018-12-13T12:59:55.691Z,3.09
2018-12-13T13:02:24.776Z,3.08
2018-12-13T13:04:53.862Z,3.06
2018-12-13T13:07:22.942Z,3.10
2018-12-13T13:09:52.074Z,3.11
2018-12-13T13:12:21.299Z,3.10
2018-12-13T13:14:50.400Z,3.08
2018-12-13T13:17:19.511Z,3.07
2018-12-13T13:19:48.602Z,2.80
2018-12-13T13:22:17.659Z,2.63
2018-12-13T13:24:46.721Z,2.43
2018-12-13T13:27:15.815Z,2.47
2018-12-13T13:29:44.873Z,2.44
2018-12-13T13:32:13.983Z,2.33
2018-12-13T13:34:43.129Z,2.37
2018-12-13T13:37:12.197Z,2.34
2018-12-13T13:39:41.264Z,2.31
2018-12-13T13:42:10.348Z,2.34
2018-12-13T13:44:39.422Z,2.36
2018-12-13T13:47:08.490Z,2.35
2018-12-13T13:49:37.594Z,2.40
2018-12-13T13:52:06.668Z,2.41
2018-12-13T13:54:35.746Z,2.42
2018-12-13T13:57:04.868Z,2.47
2018-12-13T13:59:33.931Z,2.52
2018-12-13T14:02:03.003Z,2.54
2018-12-13T14:04:32.099Z,2.60
2018-12-13T14:07:01.173Z,2.63
2018-12-13T14:09:30.231Z,2.63
2018-12-13T14:11:59.321Z,2.65
2018-12-13T14:14:28.383Z,2.67
2018-12-13T14:16:57.451Z,2.68
2018-12-13T14:19:26.572Z,2.70
2018-12-13T14:21:55.630Z,2.71
2018-12-13T14:24:24.693Z,2.74
2018-12-13T14:26:53.806Z,2.71
2018-12-13T14:29:22.877Z,2.72
2018-12-13T14:31:51.948Z,2.75
2018-12-13T14:34:21.024Z,2.77
2018-12-13T14:36:50.083Z,2.77
2018-12-13T14:39:19.145Z,2.80
2018-12-13T14:41:48.285Z,2.83
2018-12-13T14:44:17.350Z,2.87
2018-12-13T14:46:46.425Z,2.92
2018-12-13T14:49:15.525Z,2.95
2018-12-13T14:51:44.598Z,2.97
2018-12-13T14:54:13.670Z,2.98
2018-12-13T14:56:42.776Z,3.00
2018-12-13T14:59:11.841Z,3.01
2018-12-13T15:01:40.898Z,3.00
2018-12-13T15:04:09.998Z,3.00
2018-12-13T15:06:39.057Z,3.01
2018-12-13T15:09:08.117Z,3.05
2018-12-13T15:11:37.487Z,3.08
2018-12-13T15:14:06.569Z,3.10
2018-12-13T15:16:35.626Z,3.10
2018-12-13T15:19:04.718Z,3.11
2018-12-13T15:21:33.829Z,3.12
2018-12-13T15:24:02.904Z,3.13
2018-12-13T15:29:26.347Z,3.10
2018-12-13T15:31:59.353Z,3.13
2018-12-13T15:34:24.919Z,3.12
2018-12-13T15:36:53.989Z,3.10
2018-12-13T15:39:23.080Z,3.11
2018-12-13T15:41:52.189Z,3.10
2018-12-13T15:44:21.232Z,3.13
2018-12-13T15:46:50.365Z,3.14
2018-12-13T15:49:19.440Z,3.13
2018-12-13T15:51:48.509Z,3.10
2018-12-13T15:54:17.621Z,3.09
2018-12-13T15:56:46.698Z,3.14
2018-12-13T15:59:15.787Z,3.08
2018-12-13T16:01:44.885Z,3.03
2018-12-13T16:04:13.957Z,2.98
2018-12-13T16:06:43.024Z,2.91
2018-12-13T16:09:12.474Z,2.87
2018-12-13T16:11:41.528Z,2.77
2018-12-13T16:14:10.586Z,2.69
2018-12-13T16:16:39.698Z,2.64
2018-12-13T16:19:08.755Z,2.68
2018-12-13T16:21:37.821Z,2.73
2018-12-13T16:24:06.908Z,2.73
2018-12-13T16:26:35.969Z,2.76
2018-12-13T16:29:05.032Z,2.78
2018-12-13T16:31:34.163Z,2.81
2018-12-13T16:34:03.228Z,2.84
2018-12-13T16:36:36.839Z,2.84
2018-12-13T16:39:05.898Z,2.83
2018-12-13T16:41:34.959Z,2.84
2018-12-13T16:44:04.047Z,2.84
2018-12-13T16:46:33.123Z,2.86
2018-12-13T16:49:02.182Z,2.88
2018-12-13T16:51:31.352Z,2.83
2018-12-13T16:54:00.421Z,2.79
2018-12-13T16:56:29.484Z,2.79
2018-12-13T16:58:58.573Z,2.81
2018-12-13T17:01:27.773Z,2.79
2018-12-13T17:03:56.802Z,2.79
2018-12-13T17:06:25.931Z,2.79
2018-12-13T17:08:54.992Z,2.78
2018-12-13T17:11:24.052Z,2.80
2018-12-13T17:13:53.168Z,2.84
2018-12-13T17:16:22.238Z,2.82
2018-12-13T17:18:51.315Z,2.81
2018-12-13T17:21:20.399Z,2.81
2018-12-13T17:23:49.468Z,2.76
2018-12-13T17:26:18.535Z,2.72
2018-12-13T17:28:47.626Z,2.68
2018-12-13T17:31:16.687Z,2.67
2018-12-13T17:33:45.754Z,2.67
2018-12-13T17:36:15.067Z,2.61
2018-12-13T17:38:44.134Z,2.57
2018-12-13T17:41:13.184Z,2.53
2018-12-13T17:43:42.272Z,2.57
2018-12-13T17:46:13.351Z,2.59
2018-12-13T17:48:42.436Z,2.55
2018-12-13T17:51:11.496Z,2.56
2018-12-13T17:53:40.562Z,2.60
2018-12-13T17:56:26.602Z,2.58
2018-12-13T17:58:55.679Z,2.54
2018-12-13T18:01:24.747Z,2.47
2018-12-13T18:03:53.839Z,2.45
2018-12-13T18:06:22.906Z,2.41
2018-12-13T18:08:51.974Z,2.41
2018-12-13T18:11:21.069Z,2.39
2018-12-13T18:13:50.131Z,2.43
2018-12-13T18:16:19.189Z,2.44
2018-12-13T18:18:48.328Z,2.43
2018-12-13T18:21:17.440Z,2.45
2018-12-13T18:23:47.025Z,2.42
2018-12-13T18:26:30.260Z,2.47
2018-12-13T18:28:59.330Z,2.39
2018-12-13T18:31:28.396Z,2.43
2018-12-13T18:33:57.517Z,2.36
2018-12-13T18:36:26.577Z,2.36
2018-12-13T18:38:55.635Z,2.40
2018-12-13T18:41:24.732Z,2.42
2018-12-13T18:43:53.808Z,2.41
2018-12-13T18:46:35.761Z,2.41
2018-12-13T18:49:04.818Z,2.45
2018-12-13T18:51:33.898Z,2.40
2018-12-13T18:54:03.026Z,2.39
2018-12-13T18:56:32.098Z,2.38
2018-12-13T18:59:01.160Z,2.36
2018-12-13T19:01:30.250Z,2.40
2018-12-13T19:03:59.324Z,2.41
2018-12-13T19:06:31.550Z,2.41
2018-12-13T19:09:00.614Z,2.41
2018-12-13T19:11:36.371Z,2.42
2018-12-13T19:14:05.470Z,2.37
2018-12-13T19:16:34.562Z,2.38
2018-12-13T19:19:03.631Z,2.38
2018-12-13T19:21:32.753Z,2.42
2018-12-13T19:24:01.821Z,2.33
2018-12-13T19:26:30.881Z,2.33
2018-12-13T19:28:59.964Z,2.33
2018-12-13T19:31:29.033Z,2.35
2018-12-13T19:33:58.158Z,2.29
2018-12-13T19:36:29.352Z,2.31
2018-12-13T19:38:58.408Z,2.31
2018-12-13T19:41:27.478Z,2.30
2018-12-13T19:43:56.560Z,2.34
2018-12-13T19:46:25.622Z,2.31
2018-12-13T19:48:54.690Z,2.29
2018-12-13T19:51:23.814Z,2.26
2018-12-13T19:53:52.872Z,2.29
2018-12-13T19:56:21.943Z,2.24
2018-12-13T19:58:51.083Z,2.23
2018-12-13T20:01:20.139Z,2.28
2018-12-13T20:03:49.216Z,2.23
2018-12-13T20:06:18.391Z,2.23
2018-12-13T20:08:47.451Z,2.24
2018-12-13T20:11:16.504Z,2.17
2018-12-13T20:13:45.592Z,2.14
2018-12-13T20:16:14.638Z,2.08
2018-12-13T20:18:43.705Z,2.03
2018-12-13T20:21:12.812Z,2.04
2018-12-13T20:23:41.864Z,2.06
2018-12-13T20:26:10.932Z,1.97
2018-12-13T20:28:40.018Z,1.90
2018-12-13T20:31:09.064Z,1.96
2018-12-13T20:33:38.124Z,1.95
2018-12-13T20:36:07.199Z,1.96
2018-12-13T20:38:36.272Z,1.97
2018-12-13T20:41:05.339Z,1.98
2018-12-13T20:43:34.563Z,1.94
2018-12-13T20:46:03.624Z,1.91
2018-12-13T20:48:32.670Z,1.94
2018-12-13T20:51:01.848Z,1.96
2018-12-13T20:53:30.909Z,1.96
2018-12-13T20:56:09.551Z,2.04
2018-12-13T20:58:38.605Z,2.08
2018-12-13T21:01:07.663Z,2.10
2018-12-13T21:03:36.771Z,2.11
2018-12-13T21:06:05.830Z,2.13
2018-12-13T21:08:34.897Z,2.11
2018-12-13T21:11:07.385Z,2.10
2018-12-13T21:13:33.065Z,2.13
2018-12-13T21:16:02.312Z,2.15
2018-12-13T21:18:31.209Z,2.17
2018-12-13T21:21:00.269Z,2.13
2018-12-13T21:23:29.329Z,2.11
2018-12-13T21:25:58.466Z,2.16
2018-12-13T21:28:27.523Z,2.17
2018-12-13T21:30:56.579Z,2.18
2018-12-13T21:33:25.658Z,2.18
2018-12-13T21:35:54.744Z,2.24
2018-12-13T21:38:23.776Z,2.20
2018-12-13T21:40:53.200Z,2.21
2018-12-13T21:43:22.268Z,2.27
2018-12-13T21:45:51.338Z,2.30
2018-12-13T21:48:20.488Z,2.27
2018-12-13T21:50:49.559Z,2.27
2018-12-13T21:53:18.617Z,2.23
2018-12-13T21:55:47.731Z,2.26
2018-12-13T21:58:16.794Z,2.26
2018-12-13T22:00:45.867Z,2.28
2018-12-13T22:03:14.937Z,2.28
2018-12-13T22:05:44.000Z,2.22
2018-12-13T22:08:13.064Z,2.28
2018-12-13T22:10:42.262Z,2.32
2018-12-13T22:13:11.347Z,2.32
2018-12-13T22:15:40.411Z,2.30
2018-12-13T22:18:09.504Z,2.29
2018-12-13T22:20:38.573Z,2.27
2018-12-13T22:23:07.639Z,2.26
2018-12-13T22:25:36.735Z,2.30
2018-12-13T22:28:05.803Z,2.31
2018-12-13T22:30:34.878Z,2.31
2018-12-13T22:33:03.999Z,2.30
2018-12-13T22:35:33.135Z,2.32
2018-12-13T22:38:02.212Z,2.30
2018-12-13T22:40:31.302Z,2.32
2018-12-13T22:43:00.385Z,2.32
2018-12-13T22:45:39.331Z,2.30
2018-12-13T22:48:06.771Z,2.31
2018-12-13T22:50:35.919Z,2.27
2018-12-13T22:53:05.118Z,2.26
2018-12-13T22:55:34.217Z,2.31
2018-12-13T22:58:03.300Z,2.32
2018-12-13T23:00:32.358Z,2.32
2018-12-13T23:03:01.434Z,2.27
2018-12-13T23:05:30.512Z,2.29
2018-12-13T23:07:59.566Z,2.27
2018-12-13T23:10:28.641Z,2.30
2018-12-13T23:12:57.803Z,2.34
2018-12-13T23:15:26.873Z,2.37
2018-12-13T23:17:55.952Z,2.36
2018-12-13T23:20:25.097Z,2.37
2018-12-13T23:22:54.165Z,2.34
2018-12-13T23:25:23.229Z,2.33
2018-12-13T23:27:52.316Z,2.36
2018-12-13T23:30:21.385Z,2.40
2018-12-13T23:32:50.456Z,2.41
2018-12-13T23:35:19.609Z,2.43
2018-12-13T23:37:48.679Z,2.45
2018-12-13T23:40:17.745Z,2.46
2018-12-13T23:42:46.830Z,2.44
2018-12-13T23:45:15.879Z,2.46
2018-12-13T23:47:44.927Z,2.49
2018-12-13T23:50:14.125Z,2.45
2018-12-13T23:52:43.190Z,2.45
2018-12-13T23:55:12.254Z,2.43
2018-12-13T23:57:41.372Z,2.37
